createdAt,value
2023-04-25T00:02:01.453Z,9.30
2023-04-25T00:04:31.348Z,9.30
2023-04-25T00:06:59.836Z,9.32
2023-04-25T00:09:29.155Z,9.30
2023-04-25T00:11:58.974Z,9.34
2023-04-25T00:14:27.055Z,9.24
2023-04-25T00:16:55.434Z,9.29
2023-04-25T00:19:23.669Z,9.02
2023-04-25T00:21:51.723Z,9.01
2023-04-25T00:24:19.735Z,8.89
2023-04-25T00:26:48.772Z,9.07
2023-04-25T00:29:18.662Z,9.00
2023-04-25T00:31:46.830Z,8.90
2023-04-25T00:34:15.127Z,9.08
2023-04-25T00:36:43.337Z,8.96
2023-04-25T00:39:11.648Z,9.05
2023-04-25T00:41:39.771Z,9.10
2023-04-25T00:44:08.290Z,9.13
2023-04-25T00:46:38.434Z,9.17
2023-04-25T00:49:06.491Z,9.05
2023-04-25T00:51:35.232Z,9.08
2023-04-25T00:54:03.848Z,9.11
2023-04-25T00:56:32.239Z,9.00
2023-04-25T00:59:00.540Z,9.04
2023-04-25T01:01:29.327Z,9.03
2023-04-25T01:04:00.902Z,8.87
2023-04-25T01:06:29.916Z,8.94
2023-04-25T01:08:58.782Z,8.89
2023-04-25T01:11:26.831Z,8.93
2023-04-25T01:13:54.929Z,8.84
2023-04-25T01:16:25.030Z,8.82
2023-04-25T01:18:53.816Z,8.73
2023-04-25T01:21:23.463Z,8.66
2023-04-25T01:23:52.407Z,8.65
2023-04-25T01:26:22.430Z,8.66
2023-04-25T01:28:51.339Z,8.65
2023-04-25T01:31:20.661Z,8.70
2023-04-25T01:33:50.211Z,8.59
2023-04-25T01:36:20.004Z,8.40
2023-04-25T01:38:49.889Z,8.37
2023-04-25T01:41:19.079Z,8.33
2023-04-25T01:43:47.346Z,8.24
2023-04-25T01:46:15.996Z,8.22
2023-04-25T01:48:44.092Z,8.28
2023-04-25T01:51:12.720Z,8.23
2023-04-25T01:53:40.886Z,8.19
2023-04-25T01:56:11.062Z,8.13
2023-04-25T01:58:39.143Z,8.10
2023-04-25T02:01:07.348Z,8.06
2023-04-25T02:03:36.864Z,8.05
2023-04-25T02:06:05.349Z,7.93
2023-04-25T02:08:33.428Z,7.89
2023-04-25T02:11:01.455Z,7.94
2023-04-25T02:13:31.172Z,8.02
2023-04-25T02:15:59.633Z,8.02
2023-04-25T02:18:28.512Z,7.93
2023-04-25T02:20:56.695Z,7.93
2023-04-25T02:23:24.898Z,7.76
2023-04-25T02:25:54.166Z,7.85
2023-04-25T02:28:22.379Z,7.82
2023-04-25T02:30:52.310Z,7.76
2023-04-25T02:33:22.086Z,7.70
2023-04-25T02:35:50.473Z,7.70
2023-04-25T02:38:18.647Z,7.47
2023-04-25T02:40:46.959Z,7.39
2023-04-25T02:43:15.129Z,7.28
2023-04-25T02:45:43.640Z,7.17
2023-04-25T02:48:13.143Z,7.13
2023-04-25T02:50:41.366Z,7.11
2023-04-25T02:53:09.537Z,7.05
2023-04-25T02:55:37.665Z,7.09
2023-04-25T02:58:06.104Z,7.10
2023-04-25T03:00:34.461Z,6.96
2023-04-25T03:03:02.932Z,6.97
2023-04-25T03:05:32.612Z,6.83
2023-04-25T03:08:00.973Z,6.75
2023-04-25T03:10:29.030Z,6.77
2023-04-25T03:12:57.575Z,6.71
2023-04-25T03:15:25.624Z,6.55
2023-04-25T03:17:53.738Z,6.55
2023-04-25T03:20:22.200Z,6.52
2023-04-25T03:22:53.627Z,6.40
2023-04-25T03:25:22.056Z,6.32
2023-04-25T03:27:50.146Z,6.34
2023-04-25T03:30:18.602Z,6.27
2023-04-25T03:32:47.018Z,6.23
2023-04-25T03:35:15.497Z,6.22
2023-04-25T03:37:46.701Z,6.15
2023-04-25T03:40:16.295Z,6.05
2023-04-25T03:42:45.127Z,5.99
2023-04-25T03:45:13.422Z,5.94
2023-04-25T03:47:42.801Z,5.98
2023-04-25T03:50:11.659Z,5.92
2023-04-25T03:52:39.928Z,5.90
2023-04-25T03:55:08.909Z,5.89
2023-04-25T03:57:39.025Z,5.88
2023-04-25T04:00:09.017Z,5.90
2023-04-25T04:02:38.708Z,5.83
2023-04-25T04:05:08.292Z,5.92
2023-04-25T04:07:41.254Z,5.91
2023-04-25T04:10:10.284Z,5.96
2023-04-25T04:12:39.819Z,6.01
2023-04-25T04:15:08.856Z,6.02
2023-04-25T04:17:36.972Z,6.03
2023-04-25T04:20:07.119Z,5.99
2023-04-25T04:22:35.183Z,5.95
2023-04-25T04:25:03.652Z,5.98
2023-04-25T04:27:31.774Z,5.97
2023-04-25T04:30:01.560Z,6.00
2023-04-25T04:32:31.586Z,5.77
2023-04-25T04:35:00.897Z,6.04
2023-04-25T04:37:29.071Z,6.07
2023-04-25T04:39:57.715Z,6.07
2023-04-25T04:42:26.612Z,6.06
2023-04-25T04:44:56.198Z,6.11
2023-04-25T04:47:26.982Z,6.07
2023-04-25T04:49:55.092Z,6.03
2023-04-25T04:52:23.192Z,6.08
2023-04-25T04:54:51.337Z,6.03
2023-04-25T04:57:19.567Z,6.14
2023-04-25T04:59:47.772Z,6.11
2023-04-25T05:02:16.110Z,6.07
2023-04-25T05:04:46.273Z,6.18
2023-04-25T05:07:14.893Z,6.24
2023-04-25T05:09:43.236Z,6.31
2023-04-25T05:12:11.676Z,6.39
2023-04-25T05:14:39.710Z,6.45
2023-04-25T05:17:09.671Z,6.46
2023-04-25T05:19:38.029Z,6.51
2023-04-25T05:22:07.513Z,6.60
2023-04-25T05:24:35.951Z,6.62
2023-04-25T05:27:04.020Z,6.59
2023-04-25T05:29:32.224Z,6.63
2023-04-25T05:32:00.431Z,6.57
2023-04-25T05:34:28.536Z,6.56
2023-04-25T05:36:56.747Z,6.60
2023-04-25T05:39:26.390Z,6.66
2023-04-25T05:41:54.441Z,6.65
2023-04-25T05:44:22.543Z,6.78
2023-04-25T05:46:50.962Z,6.88
2023-04-25T05:49:19.763Z,6.82
2023-04-25T05:51:47.948Z,6.92
2023-04-25T05:54:16.378Z,6.96
2023-04-25T05:56:45.997Z,6.94
2023-04-25T05:59:14.170Z,6.84
2023-04-25T06:01:42.631Z,6.81
2023-04-25T06:04:11.049Z,6.87
2023-04-25T06:06:39.331Z,6.88
2023-04-25T06:09:07.560Z,6.87
2023-04-25T06:11:36.046Z,6.90
2023-04-25T06:14:05.925Z,6.96
2023-04-25T06:16:34.218Z,6.97
2023-04-25T06:19:02.558Z,6.95
2023-04-25T06:21:30.561Z,6.93
2023-04-25T06:23:58.651Z,7.03
2023-04-25T06:26:26.754Z,7.06
2023-04-25T06:28:55.161Z,7.16
2023-04-25T06:31:24.658Z,7.30
2023-04-25T06:33:55.811Z,7.41
2023-04-25T06:36:26.236Z,7.45
2023-04-25T06:38:54.634Z,7.46
2023-04-25T06:41:23.172Z,7.53
2023-04-25T06:43:51.213Z,7.59
2023-04-25T06:46:19.328Z,7.40
2023-04-25T06:48:49.471Z,7.41
2023-04-25T06:51:18.062Z,7.48
2023-04-25T06:53:46.272Z,7.49
2023-04-25T06:56:14.292Z,7.46
2023-04-25T06:58:42.338Z,7.44
2023-04-25T07:01:10.383Z,7.36
2023-04-25T07:03:39.592Z,7.56
2023-04-25T07:06:09.539Z,7.82
2023-04-25T07:08:37.667Z,8.09
2023-04-25T07:11:06.017Z,8.29
2023-04-25T07:13:34.357Z,8.38
2023-04-25T07:16:02.660Z,8.50
2023-04-25T07:18:31.020Z,8.50
2023-04-25T07:20:59.295Z,8.55
2023-04-25T07:23:29.021Z,8.52
2023-04-25T07:25:57.051Z,8.52
2023-04-25T07:28:25.497Z,8.65
2023-04-25T07:30:53.890Z,8.87
2023-04-25T07:33:23.034Z,8.97
2023-04-25T07:35:51.247Z,9.26
2023-04-25T07:38:19.284Z,9.48
2023-04-25T07:40:49.728Z,9.20
2023-04-25T07:43:18.066Z,9.28
2023-04-25T07:45:46.270Z,9.32
2023-04-25T07:48:18.750Z,9.40
2023-04-25T07:50:46.904Z,9.49
2023-04-25T07:53:15.680Z,9.84
2023-04-25T07:55:43.801Z,10.14
2023-04-25T07:58:14.994Z,9.99
2023-04-25T08:00:43.436Z,10.19
2023-04-25T08:03:12.884Z,10.07
2023-04-25T08:05:41.242Z,10.08
2023-04-25T08:08:09.568Z,9.91
2023-04-25T08:10:37.922Z,9.52
2023-04-25T08:13:06.164Z,9.44
2023-04-25T08:15:36.003Z,9.59
2023-04-25T08:18:06.077Z,9.79
2023-04-25T08:20:34.583Z,10.04
2023-04-25T08:23:02.964Z,10.29
2023-04-25T08:25:31.091Z,10.30
2023-04-25T08:28:00.660Z,10.09
2023-04-25T08:30:29.327Z,9.89
2023-04-25T08:32:58.990Z,9.88
2023-04-25T08:35:27.274Z,10.01
2023-04-25T08:37:55.465Z,10.22
2023-04-25T08:40:29.859Z,10.39
2023-04-25T08:42:59.959Z,10.53
2023-04-25T08:45:30.473Z,10.51
2023-04-25T08:48:01.702Z,10.37
2023-04-25T08:50:31.429Z,10.26
2023-04-25T08:53:03.913Z,10.14
2023-04-25T08:55:33.257Z,9.90
2023-04-25T08:58:02.448Z,9.78
2023-04-25T09:00:31.098Z,9.89
2023-04-25T09:03:01.918Z,10.05
2023-04-25T09:05:31.199Z,10.11
2023-04-25T09:07:59.521Z,10.20
2023-04-25T09:10:27.847Z,10.16
2023-04-25T09:13:09.897Z,10.35
2023-04-25T09:15:49.917Z,10.14
2023-04-25T09:18:30.629Z,10.11
2023-04-25T09:21:13.831Z,10.03
2023-04-25T09:23:44.450Z,10.34
2023-04-25T09:26:12.727Z,10.12
2023-04-25T09:28:42.094Z,9.93
2023-04-25T09:31:12.647Z,10.15
2023-04-25T09:33:43.209Z,9.86
2023-04-25T09:36:13.260Z,10.15
2023-04-25T09:38:44.154Z,10.36
2023-04-25T09:41:13.073Z,10.29
2023-04-25T09:43:41.894Z,10.15
2023-04-25T09:46:12.534Z,10.21
2023-04-25T09:48:42.132Z,10.23
2023-04-25T09:51:12.039Z,10.03
2023-04-25T09:53:44.750Z,9.99
2023-04-25T09:56:14.899Z,9.93
2023-04-25T09:58:43.739Z,9.93
2023-04-25T10:01:15.956Z,10.23
2023-04-25T10:03:47.927Z,10.30
2023-04-25T10:06:22.608Z,10.45
2023-04-25T10:08:53.357Z,10.66
2023-04-25T10:11:21.800Z,10.62
2023-04-25T10:13:50.656Z,10.91
2023-04-25T10:16:19.933Z,11.14
2023-04-25T10:18:49.996Z,11.34
2023-04-25T10:21:18.711Z,11.00
2023-04-25T10:23:48.196Z,10.81
2023-04-25T10:26:17.938Z,10.63
2023-04-25T10:28:59.464Z,10.41
2023-04-25T10:31:28.378Z,10.51
2023-04-25T10:34:01.669Z,10.10
2023-04-25T10:36:34.307Z,9.94
2023-04-25T10:39:08.456Z,9.70
2023-04-25T10:41:49.312Z,9.95
2023-04-25T10:44:18.001Z,9.86
2023-04-25T10:46:48.412Z,10.15
2023-04-25T10:52:17.358Z,10.84
2023-04-25T10:54:49.603Z,10.63
2023-04-25T10:57:40.148Z,11.21
2023-04-25T11:00:12.148Z,10.86
2023-04-25T11:02:44.170Z,11.17
2023-04-25T11:05:12.918Z,11.35
2023-04-25T11:07:59.840Z,11.27
2023-04-25T11:10:36.825Z,11.13
2023-04-25T11:13:05.394Z,10.73
2023-04-25T11:15:33.626Z,10.33
2023-04-25T11:18:10.493Z,10.22
2023-04-25T11:20:38.644Z,10.34
2023-04-25T11:23:08.334Z,10.43
2023-04-25T11:25:38.521Z,10.59
2023-04-25T11:28:07.212Z,10.75
2023-04-25T11:30:35.258Z,10.82
2023-04-25T11:33:04.498Z,10.39
2023-04-25T11:35:34.725Z,10.74
2023-04-25T11:38:04.118Z,11.05
2023-04-25T11:40:34.689Z,10.45
2023-04-25T11:43:03.368Z,10.77
2023-04-25T11:45:32.342Z,10.67
2023-04-25T11:48:00.564Z,10.36
2023-04-25T11:50:30.777Z,10.13
2023-04-25T11:52:59.559Z,10.41
2023-04-25T11:55:27.936Z,10.42
2023-04-25T11:57:57.543Z,10.43
2023-04-25T12:00:27.054Z,10.55
2023-04-25T12:02:57.021Z,10.82
2023-04-25T12:05:32.896Z,11.00
2023-04-25T12:08:14.137Z,11.13
2023-04-25T12:10:44.182Z,11.03
2023-04-25T12:13:29.262Z,10.97
2023-04-25T12:15:58.027Z,11.02
2023-04-25T12:18:28.806Z,10.79
2023-04-25T12:20:57.897Z,10.82
2023-04-25T12:23:30.033Z,10.84
2023-04-25T12:25:58.878Z,10.79
2023-04-25T12:28:29.464Z,10.89
2023-04-25T12:30:59.672Z,10.62
2023-04-25T12:33:29.113Z,10.74
2023-04-25T12:35:58.658Z,10.61
2023-04-25T12:38:28.154Z,10.79
2023-04-25T12:40:56.928Z,10.86
2023-04-25T12:43:25.746Z,10.92
2023-04-25T12:45:56.997Z,11.52
2023-04-25T12:48:26.521Z,12.08
2023-04-25T12:50:55.108Z,12.55
2023-04-25T12:53:25.681Z,12.99
2023-04-25T12:58:27.540Z,12.15
2023-04-25T13:00:57.289Z,12.19
2023-04-25T13:03:25.905Z,12.07
2023-04-25T13:05:55.434Z,11.57
2023-04-25T13:08:23.761Z,11.83
2023-04-25T13:10:52.042Z,11.98
2023-04-25T13:13:20.256Z,11.44
2023-04-25T13:15:48.808Z,11.29
2023-04-25T13:18:18.801Z,11.26
2023-04-25T13:20:47.338Z,11.17
2023-04-25T13:23:15.744Z,11.03
2023-04-25T13:25:43.893Z,11.38
2023-04-25T13:28:12.152Z,11.15
2023-04-25T13:30:40.851Z,11.30
2023-04-25T13:33:10.841Z,10.96
2023-04-25T13:35:41.192Z,10.54
2023-04-25T13:38:10.123Z,10.56
2023-04-25T13:40:38.531Z,10.54
2023-04-25T13:43:07.640Z,10.29
2023-04-25T13:45:37.179Z,10.67
2023-04-25T13:48:05.595Z,10.65
2023-04-25T13:50:33.853Z,10.72
2023-04-25T13:53:03.835Z,10.62
2023-04-25T13:55:32.554Z,10.96
2023-04-25T13:58:08.155Z,11.14
2023-04-25T14:00:39.081Z,11.62
2023-04-25T14:03:09.270Z,11.86
2023-04-25T14:05:40.347Z,12.03
2023-04-25T14:08:11.775Z,12.03
2023-04-25T14:10:40.099Z,11.91
2023-04-25T14:13:10.209Z,11.73
2023-04-25T14:15:39.751Z,11.45
2023-04-25T14:18:08.812Z,11.07
2023-04-25T14:20:37.384Z,10.98
2023-04-25T14:23:06.073Z,10.70
2023-04-25T14:25:37.027Z,10.81
2023-04-25T14:28:05.262Z,10.64
2023-04-25T14:30:33.641Z,10.41
2023-04-25T14:33:02.262Z,10.15
2023-04-25T14:35:30.722Z,10.34
2023-04-25T14:37:59.188Z,10.39
2023-04-25T14:40:28.802Z,10.46
2023-04-25T14:42:58.897Z,10.56
2023-04-25T14:45:27.408Z,10.66
2023-04-25T14:47:55.729Z,10.74
2023-04-25T14:50:24.013Z,10.81
2023-04-25T14:52:54.001Z,10.83
2023-04-25T14:55:22.368Z,11.01
2023-04-25T14:57:50.755Z,10.88
2023-04-25T15:00:21.870Z,11.20
2023-04-25T15:02:50.728Z,11.71
2023-04-25T15:05:19.842Z,12.09
2023-04-25T15:07:48.932Z,11.72
2023-04-25T15:10:17.808Z,11.66
2023-04-25T15:12:47.705Z,11.68
2023-04-25T15:15:26.027Z,11.61
2023-04-25T15:17:59.286Z,11.49
2023-04-25T15:20:28.777Z,11.38
2023-04-25T15:22:57.230Z,11.19
2023-04-25T15:25:26.094Z,11.00
2023-04-25T15:27:55.938Z,10.73
2023-04-25T15:30:24.188Z,10.53
2023-04-25T15:32:53.732Z,10.45
2023-04-25T15:35:23.643Z,10.35
2023-04-25T15:37:52.673Z,10.26
2023-04-25T15:40:20.848Z,10.24
2023-04-25T15:42:51.843Z,10.36
2023-04-25T15:45:21.736Z,10.55
2023-04-25T15:47:51.652Z,10.63
2023-04-25T15:50:20.304Z,11.03
2023-04-25T15:52:50.867Z,11.06
2023-04-25T15:55:21.776Z,11.01
2023-04-25T15:57:51.377Z,10.78
2023-04-25T16:00:22.289Z,10.98
2023-04-25T16:02:50.959Z,11.05
2023-04-25T16:05:19.722Z,11.15
2023-04-25T16:07:50.247Z,11.23
2023-04-25T16:10:21.965Z,11.23
2023-04-25T16:12:50.974Z,11.10
2023-04-25T16:15:19.350Z,10.99
2023-04-25T16:17:47.582Z,10.48
2023-04-25T16:20:17.636Z,10.58
2023-04-25T16:22:46.090Z,10.44
2023-04-25T16:25:16.126Z,10.34
2023-04-25T16:27:44.549Z,10.52
2023-04-25T16:30:13.178Z,10.69
2023-04-25T16:32:44.830Z,11.23
2023-04-25T16:35:15.384Z,11.23
2023-04-25T16:37:43.879Z,11.18
2023-04-25T16:40:12.913Z,11.00
2023-04-25T16:42:42.642Z,10.83
2023-04-25T16:45:11.796Z,10.57
2023-04-25T16:47:39.930Z,10.58
2023-04-25T16:50:09.144Z,10.78
2023-04-25T16:52:37.329Z,10.75
2023-04-25T16:55:06.616Z,10.37
2023-04-25T16:57:36.458Z,10.28
2023-04-25T17:00:09.930Z,10.26
2023-04-25T17:02:38.498Z,10.26
2023-04-25T17:05:07.788Z,10.11
2023-04-25T17:07:36.343Z,10.15
2023-04-25T17:10:04.878Z,10.10
2023-04-25T17:12:33.703Z,10.11
2023-04-25T17:15:01.885Z,10.41
2023-04-25T17:17:31.660Z,10.87
2023-04-25T17:19:59.688Z,11.34
2023-04-25T17:22:27.894Z,11.49
2023-04-25T17:24:56.050Z,11.59
2023-04-25T17:27:24.120Z,11.39
2023-04-25T17:29:52.288Z,11.36
2023-04-25T17:32:20.472Z,11.24
2023-04-25T17:34:50.055Z,11.26
2023-04-25T17:37:18.985Z,11.20
2023-04-25T17:39:47.453Z,10.99
2023-04-25T17:42:15.982Z,10.64
2023-04-25T17:44:44.444Z,10.37
2023-04-25T17:47:13.136Z,10.12
2023-04-25T17:49:41.292Z,9.70
2023-04-25T17:52:11.072Z,9.31
2023-04-25T17:54:39.544Z,9.06
2023-04-25T17:57:08.103Z,8.86
2023-04-25T17:59:36.604Z,8.69
2023-04-25T18:02:05.040Z,8.63
2023-04-25T18:04:33.439Z,8.89
2023-04-25T18:07:01.870Z,9.18
2023-04-25T18:09:32.606Z,9.36
2023-04-25T18:12:01.516Z,9.47
2023-04-25T18:14:29.550Z,9.58
2023-04-25T18:16:58.303Z,9.43
2023-04-25T18:22:05.546Z,9.11
2023-04-25T18:24:35.553Z,8.83
2023-04-25T18:27:07.120Z,8.82
2023-04-25T18:29:35.243Z,8.79
2023-04-25T18:32:05.249Z,8.75
2023-04-25T18:34:34.094Z,8.63
2023-04-25T18:37:02.560Z,8.75
2023-04-25T18:39:30.970Z,8.67
2023-04-25T18:42:04.672Z,8.62
2023-04-25T18:44:39.648Z,8.55
2023-04-25T18:47:07.929Z,8.49
2023-04-25T18:49:35.975Z,8.45
2023-04-25T18:52:04.527Z,8.33
2023-04-25T18:54:33.117Z,8.27
2023-04-25T18:57:05.182Z,8.28
2023-04-25T18:59:33.534Z,8.18
2023-04-25T19:02:02.181Z,8.02
2023-04-25T19:04:30.696Z,8.12
2023-04-25T19:06:59.018Z,8.17
2023-04-25T19:09:27.578Z,8.04
2023-04-25T19:11:55.959Z,8.04
2023-04-25T19:14:26.167Z,7.96
2023-04-25T19:16:54.372Z,7.92
2023-04-25T19:19:22.647Z,7.90
2023-04-25T19:21:52.612Z,7.88
2023-04-25T19:24:21.024Z,7.86
2023-04-25T19:26:49.158Z,7.94
2023-04-25T19:29:17.676Z,7.84
2023-04-25T19:31:47.159Z,7.81
2023-04-25T19:34:15.609Z,7.71
2023-04-25T19:36:44.394Z,7.75
2023-04-25T19:39:13.253Z,7.78
2023-04-25T19:41:41.803Z,7.77
2023-04-25T19:44:10.872Z,7.85
2023-04-25T19:46:39.708Z,7.75
2023-04-25T19:49:09.905Z,7.71
2023-04-25T19:51:38.128Z,7.71
2023-04-25T19:54:06.713Z,7.63
2023-04-25T19:56:35.224Z,7.68
2023-04-25T19:59:03.338Z,7.64
2023-04-25T20:01:31.831Z,7.64
2023-04-25T20:04:00.033Z,7.55
2023-04-25T20:06:29.863Z,7.63
2023-04-25T20:08:57.958Z,7.62
2023-04-25T20:11:28.720Z,7.70
2023-04-25T20:13:57.554Z,7.63
2023-04-25T20:16:27.800Z,7.69
2023-04-25T20:18:56.586Z,7.70
2023-04-25T20:21:25.365Z,7.68
2023-04-25T20:23:55.000Z,7.68
2023-04-25T20:26:23.241Z,7.75
2023-04-25T20:28:52.300Z,7.64
2023-04-25T20:31:21.477Z,7.60
2023-04-25T20:33:49.972Z,7.53
2023-04-25T20:36:19.696Z,7.59
2023-04-25T20:38:48.172Z,7.61
2023-04-25T20:41:18.396Z,7.68
2023-04-25T20:43:47.338Z,7.77
2023-04-25T20:46:16.250Z,7.75
2023-04-25T20:48:44.752Z,7.82
2023-04-25T20:51:13.041Z,7.78
2023-04-25T20:53:41.130Z,7.79
2023-04-25T20:56:11.161Z,7.81
2023-04-25T20:58:41.480Z,7.82
2023-04-25T21:01:10.425Z,7.81
2023-04-25T21:03:39.000Z,7.86
2023-04-25T21:06:07.707Z,7.81
2023-04-25T21:08:35.941Z,7.92
2023-04-25T21:11:05.306Z,7.82
2023-04-25T21:13:33.824Z,7.78
2023-04-25T21:16:03.802Z,7.77
2023-04-25T21:18:32.178Z,7.77
2023-04-25T21:21:01.346Z,7.61
2023-04-25T21:23:29.466Z,7.60
2023-04-25T21:25:57.754Z,7.68
2023-04-25T21:28:26.289Z,7.63
2023-04-25T21:30:54.732Z,7.62
2023-04-25T21:33:24.702Z,7.64
2023-04-25T21:35:53.182Z,7.62
2023-04-25T21:38:22.338Z,7.54
2023-04-25T21:40:51.066Z,7.37
2023-04-25T21:43:19.310Z,7.33
2023-04-25T21:46:11.478Z,7.27
2023-04-25T21:48:37.322Z,7.42
2023-04-25T21:51:05.912Z,7.47
2023-04-25T21:53:34.528Z,7.43
2023-04-25T21:56:02.990Z,7.31
2023-04-25T21:58:31.182Z,7.33
2023-04-25T22:01:00.204Z,7.38
2023-04-25T22:03:28.643Z,7.23
2023-04-25T22:05:59.102Z,7.16
2023-04-25T22:08:27.478Z,7.19
2023-04-25T22:10:56.537Z,7.22
2023-04-25T22:13:27.038Z,7.18
2023-04-25T22:15:55.222Z,7.09
2023-04-25T22:18:23.900Z,7.02
2023-04-25T22:20:52.197Z,7.01
2023-04-25T22:23:22.894Z,7.00
2023-04-25T22:25:51.090Z,6.97
2023-04-25T22:28:19.319Z,6.98
2023-04-25T22:30:47.494Z,6.72
2023-04-25T22:33:15.630Z,6.70
2023-04-25T22:35:44.000Z,6.64
2023-04-25T22:38:12.268Z,6.59
2023-04-25T22:40:41.946Z,6.55
2023-04-25T22:43:10.747Z,6.49
2023-04-25T22:45:38.932Z,6.49
2023-04-25T22:48:08.066Z,6.32
2023-04-25T22:50:36.946Z,6.28
2023-04-25T22:53:05.339Z,6.31
2023-04-25T22:55:33.392Z,6.17
2023-04-25T22:58:02.849Z,6.08
2023-04-25T23:00:31.315Z,6.23
2023-04-25T23:02:59.664Z,6.22
2023-04-25T23:05:28.344Z,6.24
2023-04-25T23:07:56.381Z,6.09
2023-04-25T23:10:27.158Z,6.15
2023-04-25T23:12:58.319Z,6.07
2023-04-25T23:15:31.108Z,5.98
2023-04-25T23:17:59.735Z,5.98
2023-04-25T23:20:27.956Z,5.82
2023-04-25T23:22:56.251Z,5.82
2023-04-25T23:25:24.598Z,5.89
2023-04-25T23:27:52.781Z,5.91
2023-04-25T23:30:21.414Z,5.90
2023-04-25T23:32:51.688Z,5.80
2023-04-25T23:35:20.246Z,5.74
2023-04-25T23:37:49.554Z,5.73
2023-04-25T23:40:17.588Z,5.68
2023-04-25T23:42:45.726Z,5.56
2023-04-25T23:45:15.971Z,5.52
2023-04-25T23:47:44.599Z,5.53
2023-04-25T23:50:15.011Z,5.56
2023-04-25T23:52:43.001Z,5.50
2023-04-25T23:55:11.300Z,5.63
2023-04-25T23:57:39.315Z,5.49
